Time;durP1;ratioP1;P1;durP2;ratioP2;P2;SDS_P1;SDS_P2;PMS_P1;PMS_P2;Temp;Humidity;BMP_temperature;BMP_pressure;BME280_temperature;BME280_humidity;BME280_pressure;Samples;Min_cycle;Max_cycle;Signal;HPM_P1;HPM_P2
2023/06/26 00:01:09;;;;;;;3.17;1.08;;;14.20;51.50;;;;;;6279052;22;20010;-74
2023/06/26 00:03:37;;;;;;;4.85;0.82;;;14.20;51.40;;;;;;6279031;22;20338;-74
2023/06/26 00:06:04;;;;;;;2.58;0.70;;;14.20;51.40;;;;;;6306443;22;20027;-73
2023/06/26 00:08:31;;;;;;;1.55;0.50;;;14.20;51.10;;;;;;6278957;22;20074;-73
2023/06/26 00:10:58;;;;;;;2.67;0.63;;;14.20;50.90;;;;;;6306251;22;20018;-73
2023/06/26 00:13:26;;;;;;;1.27;0.63;;;14.30;50.80;;;;;;6279142;22;19999;-73
2023/06/26 00:15:53;;;;;;;4.03;0.52;;;14.40;50.70;;;;;;6279158;22;19999;-74
2023/06/26 00:18:21;;;;;;;0.90;0.60;;;14.40;50.50;;;;;;6305538;22;20051;-74
2023/06/26 00:20:48;;;;;;;3.05;0.77;;;14.40;50.30;;;;;;6278735;22;20006;-74
2023/06/26 00:23:17;;;;;;;1.70;0.80;;;14.40;50.20;;;;;;6306234;22;20003;-74
2023/06/26 00:25:44;;;;;;;1.40;0.70;;;14.50;50.20;;;;;;6306256;22;20314;-73
2023/06/26 00:28:12;;;;;;;0.80;0.47;;;14.40;50.00;;;;;;6306812;22;20008;-73
2023/06/26 00:30:39;;;;;;;1.13;0.65;;;14.50;50.00;;;;;;6306255;22;20003;-73
2023/06/26 00:33:06;;;;;;;0.80;0.60;;;14.50;50.10;;;;;;6279306;22;20017;-71
2023/06/26 00:35:35;;;;;;;0.60;0.47;;;14.60;50.00;;;;;;6306237;22;19999;-71
2023/06/26 00:38:02;;;;;;;0.85;0.60;;;14.60;49.80;;;;;;6305908;22;20012;-73
2023/06/26 00:40:29;;;;;;;2.63;0.60;;;14.60;49.80;;;;;;6307063;22;20014;-73
2023/06/26 00:42:57;;;;;;;3.40;0.60;;;14.70;49.50;;;;;;6308198;22;20004;-74
2023/06/26 00:45:24;;;;;;;3.00;1.10;;;14.70;49.40;;;;;;6308265;22;20066;-73
2023/06/26 00:47:51;;;;;;;2.33;0.82;;;14.70;49.60;;;;;;6307669;22;20112;-71
2023/06/26 00:50:18;;;;;;;2.00;0.70;;;14.80;49.40;;;;;;6280765;22;19995;-71
2023/06/26 00:52:46;;;;;;;2.35;0.70;;;14.80;49.20;;;;;;6308081;22;20113;-71
2023/06/26 00:55:13;;;;;;;4.28;0.70;;;14.90;49.30;;;;;;6280827;22;20010;-71
2023/06/26 00:57:40;;;;;;;3.97;0.73;;;14.90;48.80;;;;;;6255218;22;20080;-71
2023/06/26 01:00:10;;;;;;;1.58;0.75;;;14.90;48.50;;;;;;6280960;22;19999;-71
2023/06/26 01:02:38;;;;;;;2.17;0.77;;;15.00;48.50;;;;;;6281001;22;20045;-71
2023/06/26 01:05:06;;;;;;;2.60;0.70;;;15.00;48.50;;;;;;6307896;22;20010;-72
2023/06/26 01:07:37;;;;;;;2.67;0.65;;;15.00;48.60;;;;;;6308369;22;20031;-74
2023/06/26 01:10:07;;;;;;;3.15;0.60;;;15.00;48.90;;;;;;6281208;22;19995;-74
2023/06/26 01:12:35;;;;;;;3.25;0.82;;;15.00;49.00;;;;;;6280152;22;20008;-74
2023/06/26 01:15:02;;;;;;;2.80;0.60;;;15.10;48.80;;;;;;6307646;22;20098;-73
2023/06/26 01:17:32;;;;;;;3.08;0.85;;;15.20;48.80;;;;;;6280420;22;20019;-74
2023/06/26 01:20:09;;;;;;;1.63;0.68;;;15.20;48.80;;;;;;6308098;22;19999;-74
2023/06/26 01:22:45;;;;;;;1.83;0.80;;;15.20;48.60;;;;;;6257318;22;20007;-73
2023/06/26 01:25:30;;;;;;;2.85;0.80;;;15.20;48.40;;;;;;6307768;22;20034;-74
2023/06/26 01:27:58;;;;;;;2.78;0.68;;;15.20;48.00;;;;;;6280375;22;20007;-73
2023/06/26 01:30:25;;;;;;;3.63;0.80;;;15.30;47.70;;;;;;6280670;22;19999;-73
2023/06/26 01:32:52;;;;;;;1.77;0.77;;;15.30;47.70;;;;;;6255404;22;20103;-73
2023/06/26 01:35:19;;;;;;;1.45;0.77;;;15.30;47.80;;;;;;6255063;22;20079;-73
2023/06/26 01:37:46;;;;;;;1.50;0.80;;;15.30;47.60;;;;;;6254827;22;20007;-71
2023/06/26 01:40:14;;;;;;;2.58;0.65;;;15.40;47.80;;;;;;6307372;22;20022;-71
2023/06/26 01:42:41;;;;;;;1.17;0.55;;;15.40;47.70;;;;;;6307341;22;20420;-71
2023/06/26 01:45:21;;;;;;;2.03;0.90;;;15.50;47.70;;;;;;6229432;22;20095;-73
2023/06/26 01:47:49;;;;;;;;;;;15.50;47.60;;;;;;6257015;22;20078;-73
2023/06/26 01:50:23;;;;;;;2.50;1.00;;;15.50;48.30;;;;;;6307469;22;19906;-74
2023/06/26 01:53:02;;;;;;;1.73;0.70;;;15.60;48.70;;;;;;6255240;22;20003;-74
2023/06/26 01:55:37;;;;;;;4.07;1.17;;;15.60;48.30;;;;;;6254655;22;20093;-74
2023/06/26 01:58:04;;;;;;;2.58;0.82;;;15.70;48.10;;;;;;6280271;22;20011;-73
2023/06/26 02:00:32;;;;;;;3.58;0.77;;;15.60;47.90;;;;;;6307458;22;20007;-73
2023/06/26 02:02:59;;;;;;;3.78;0.85;;;15.70;47.30;;;;;;6307146;22;19999;-74
2023/06/26 02:05:26;;;;;;;6.35;0.95;;;15.60;47.30;;;;;;6307562;22;20057;-74
2023/06/26 02:07:53;;;;;;;3.20;1.38;;;15.70;47.10;;;;;;6307210;22;20017;-74
2023/06/26 02:10:21;;;;;;;3.72;1.10;;;15.70;47.00;;;;;;6307215;22;20003;-74
2023/06/26 02:12:48;;;;;;;3.83;0.90;;;15.70;46.90;;;;;;6307347;22;20007;-73
2023/06/26 02:15:15;;;;;;;3.65;1.15;;;15.80;46.80;;;;;;6280078;22;20015;-73
2023/06/26 02:17:42;;;;;;;6.97;1.00;;;15.80;47.30;;;;;;6306834;22;20027;-73
2023/06/26 02:20:10;;;;;;;3.85;0.90;;;15.90;47.00;;;;;;6307239;22;20109;-73
2023/06/26 02:22:37;;;;;;;2.28;0.65;;;15.90;46.50;;;;;;6307282;22;19999;-73
2023/06/26 02:25:05;;;;;;;2.63;0.98;;;15.90;46.70;;;;;;6280471;22;20007;-73
2023/06/26 02:27:32;;;;;;;1.50;0.80;;;15.80;46.70;;;;;;6279778;22;20014;-74
2023/06/26 02:29:59;;;;;;;3.80;1.35;;;15.80;46.80;;;;;;6279917;22;20006;-74
2023/06/26 02:32:27;;;;;;;5.03;1.15;;;15.90;46.70;;;;;;6307198;22;20003;-73
2023/06/26 02:34:54;;;;;;;3.95;0.65;;;15.90;46.70;;;;;;6307184;22;19999;-73
2023/06/26 02:37:21;;;;;;;5.03;1.08;;;15.90;46.50;;;;;;6307088;22;20490;-73
2023/06/26 02:39:49;;;;;;;3.05;0.90;;;15.90;46.10;;;;;;6307090;22;20453;-72
2023/06/26 02:42:16;;;;;;;3.38;0.80;;;16.00;46.20;;;;;;6306603;22;20049;-70
2023/06/26 02:44:43;;;;;;;4.43;1.00;;;16.00;46.10;;;;;;6306799;22;20108;-71
2023/06/26 02:47:10;;;;;;;1.13;0.80;;;16.00;46.30;;;;;;6307080;22;19995;-71
2023/06/26 02:49:37;;;;;;;3.92;1.02;;;16.00;46.40;;;;;;6306591;22;20011;-74
2023/06/26 02:52:05;;;;;;;2.22;0.70;;;16.10;46.00;;;;;;6279156;22;20064;-72
2023/06/26 02:54:32;;;;;;;3.45;1.23;;;16.00;45.80;;;;;;6307131;22;20006;-71
2023/06/26 02:57:00;;;;;;;3.45;0.98;;;16.10;45.80;;;;;;6307130;22;20000;-72
2023/06/26 02:59:27;;;;;;;2.83;0.73;;;16.00;45.90;;;;;;6307003;22;20018;-71
2023/06/26 03:01:57;;;;;;;6.47;1.13;;;16.00;45.50;;;;;;6280050;22;19999;-71
2023/06/26 03:04:24;;;;;;;1.75;0.90;;;16.10;45.50;;;;;;6306308;22;20060;-72
2023/06/26 03:06:51;;;;;;;2.00;0.80;;;16.10;45.70;;;;;;6306701;22;20010;-72
2023/06/26 03:09:19;;;;;;;3.80;0.80;;;16.20;45.10;;;;;;6279636;22;20025;-71
2023/06/26 03:11:46;;;;;;;1.52;0.82;;;16.20;45.10;;;;;;6279048;22;20015;-71
2023/06/26 03:14:13;;;;;;;6.78;0.98;;;16.20;44.90;;;;;;6279344;22;20003;-72
2023/06/26 03:16:41;;;;;;;5.75;0.80;;;16.20;44.60;;;;;;6306695;22;20011;-71
2023/06/26 03:19:08;;;;;;;3.10;0.95;;;16.30;44.30;;;;;;6306675;22;20013;-71
2023/06/26 03:21:36;;;;;;;4.43;0.85;;;16.20;44.30;;;;;;6306719;22;19996;-71
2023/06/26 03:24:03;;;;;;;2.88;0.63;;;16.20;44.60;;;;;;6254422;22;20011;-72
2023/06/26 03:26:30;;;;;;;2.15;0.80;;;16.20;44.40;;;;;;6306457;22;19999;-71
2023/06/26 03:28:57;;;;;;;5.38;0.88;;;16.30;44.40;;;;;;6306718;22;20000;-72
2023/06/26 03:31:25;;;;;;;1.25;0.80;;;16.20;44.30;;;;;;6306541;22;20074;-72
2023/06/26 03:33:52;;;;;;;1.70;0.70;;;16.20;44.80;;;;;;6278952;22;19999;-71
2023/06/26 03:36:19;;;;;;;1.80;0.60;;;16.20;44.60;;;;;;6306602;22;20029;-72
2023/06/26 03:38:46;;;;;;;2.28;0.70;;;16.20;44.60;;;;;;6306632;22;20015;-72
2023/06/26 03:41:14;;;;;;;10.63;0.73;;;16.20;44.40;;;;;;6279308;22;20495;-72
2023/06/26 03:43:41;;;;;;;4.07;0.88;;;16.20;44.40;;;;;;6306659;22;20008;-72
2023/06/26 03:46:08;;;;;;;4.68;0.90;;;16.40;44.20;;;;;;6279374;22;20022;-71
2023/06/26 03:48:37;;;;;;;1.67;0.70;;;16.30;43.70;;;;;;6305822;22;20026;-71
2023/06/26 03:51:06;;;;;;;3.33;0.80;;;16.30;43.30;;;;;;6279881;22;20369;-71
2023/06/26 03:53:34;;;;;;;1.20;0.43;;;16.30;43.60;;;;;;6306265;22;20003;-72
2023/06/26 03:56:01;;;;;;;2.42;0.70;;;16.30;43.40;;;;;;6306397;22;19999;-72
2023/06/26 03:58:29;;;;;;;2.55;0.85;;;16.30;43.50;;;;;;6279484;22;20064;-72
2023/06/26 04:00:57;;;;;;;2.47;0.68;;;16.30;43.70;;;;;;6279471;22;20002;-72
2023/06/26 04:03:25;;;;;;;5.22;0.57;;;16.20;43.70;;;;;;6306498;22;20334;-71
2023/06/26 04:05:52;;;;;;;0.98;0.50;;;16.20;43.80;;;;;;6279541;22;20342;-71
2023/06/26 04:08:20;;;;;;;3.80;0.60;;;16.30;44.40;;;;;;6306101;22;20011;-71
2023/06/26 04:10:47;;;;;;;1.50;0.70;;;16.30;43.50;;;;;;6253490;22;20357;-72
2023/06/26 04:13:15;;;;;;;3.72;0.80;;;16.30;43.30;;;;;;6306493;22;20003;-71
2023/06/26 04:15:42;;;;;;;4.60;0.80;;;16.30;43.40;;;;;;6280385;22;20078;-72
2023/06/26 04:18:09;;;;;;;2.35;0.90;;;16.30;43.70;;;;;;6281311;22;20019;-71
2023/06/26 04:20:44;;;;;;;1.90;0.98;;;16.30;43.90;;;;;;6281048;22;19996;-72
2023/06/26 04:23:12;;;;;;;0.60;0.50;;;16.30;44.00;;;;;;6308289;22;20426;-72
2023/06/26 04:25:39;;;;;;;1.45;0.52;;;16.30;43.70;;;;;;6308237;22;19995;-71
2023/06/26 04:28:06;;;;;;;2.30;0.90;;;16.30;43.60;;;;;;6308462;22;20030;-72
2023/06/26 04:30:34;;;;;;;4.07;1.00;;;16.30;43.80;;;;;;6281471;22;19999;-72
2023/06/26 04:33:01;;;;;;;3.58;0.90;;;16.30;43.40;;;;;;6281469;22;20414;-71
2023/06/26 04:35:29;;;;;;;6.75;0.80;;;16.30;43.50;;;;;;6308005;22;20000;-71
2023/06/26 04:37:56;;;;;;;7.22;1.00;;;16.30;43.50;;;;;;6280737;22;20074;-71
2023/06/26 04:40:23;;;;;;;5.10;0.93;;;16.40;43.20;;;;;;6281156;22;20014;-72
2023/06/26 04:42:50;;;;;;;4.93;0.80;;;16.40;43.10;;;;;;6308117;22;20003;-71
2023/06/26 04:45:18;;;;;;;2.03;0.98;;;16.30;43.30;;;;;;6308372;22;19999;-72
2023/06/26 04:47:45;;;;;;;2.78;0.80;;;16.30;43.60;;;;;;6308131;22;20003;-71
2023/06/26 04:50:12;;;;;;;6.40;0.88;;;16.30;43.80;;;;;;6307890;22;20019;-72
2023/06/26 04:52:39;;;;;;;2.15;0.70;;;16.40;43.70;;;;;;6307605;22;20010;-71
2023/06/26 04:55:07;;;;;;;2.65;0.80;;;16.30;43.80;;;;;;6308132;22;19995;-72
2023/06/26 04:57:34;;;;;;;3.35;1.20;;;16.30;44.20;;;;;;6280999;22;20012;-72
2023/06/26 05:00:01;;;;;;;2.25;0.93;;;16.30;44.00;;;;;;6281111;22;20473;-72
2023/06/26 05:02:29;;;;;;;6.00;1.10;;;16.30;44.00;;;;;;6308097;22;20080;-72
2023/06/26 05:04:56;;;;;;;2.67;0.80;;;16.30;43.80;;;;;;6307926;22;20031;-71
2023/06/26 05:07:23;;;;;;;3.58;0.80;;;16.30;43.90;;;;;;6280821;22;20072;-71
2023/06/26 05:09:51;;;;;;;3.83;0.90;;;16.20;44.20;;;;;;6307221;22;20426;-72
2023/06/26 05:12:18;;;;;;;2.25;0.82;;;16.20;43.80;;;;;;6307867;22;19995;-72
2023/06/26 05:14:46;;;;;;;9.02;1.33;;;16.20;44.30;;;;;;6308006;22;20003;-72
2023/06/26 05:17:15;;;;;;;4.68;0.90;;;16.20;44.60;;;;;;6280414;22;20019;-72
2023/06/26 05:19:42;;;;;;;3.47;0.82;;;16.30;43.80;;;;;;6255095;22;20007;-72
2023/06/26 05:22:10;;;;;;;4.25;0.70;;;16.30;43.60;;;;;;6307812;22;19995;-72
2023/06/26 05:24:38;;;;;;;7.35;0.90;;;16.30;43.60;;;;;;6280880;22;20322;-72
2023/06/26 05:27:05;;;;;;;3.85;0.88;;;16.30;43.20;;;;;;6229427;22;20042;-72
2023/06/26 05:29:33;;;;;;;13.60;1.48;;;16.20;43.20;;;;;;6307654;22;20010;-72
2023/06/26 05:32:01;;;;;;;3.50;0.93;;;16.20;43.10;;;;;;6280505;22;20082;-71
2023/06/26 05:34:28;;;;;;;8.65;0.95;;;16.20;43.00;;;;;;6280586;22;20007;-72
2023/06/26 05:36:59;;;;;;;16.48;1.83;;;16.20;42.70;;;;;;6280582;22;20074;-72
2023/06/26 05:39:27;;;;;;;10.73;1.17;;;16.20;43.00;;;;;;6280950;22;20018;-71
2023/06/26 05:41:54;;;;;;;7.78;0.90;;;16.20;43.20;;;;;;6307278;22;20007;-72
2023/06/26 05:44:21;;;;;;;4.63;1.17;;;16.20;43.00;;;;;;6307553;22;20010;-72
2023/06/26 05:46:49;;;;;;;11.00;1.17;;;16.20;43.00;;;;;;6307382;22;20430;-72
2023/06/26 05:49:16;;;;;;;18.40;1.80;;;16.20;43.40;;;;;;6280336;22;20078;-71
2023/06/26 05:51:43;;;;;;;5.65;1.13;;;16.20;43.10;;;;;;6279784;22;19995;-71
2023/06/26 05:54:13;;;;;;;7.05;1.00;;;16.20;43.70;;;;;;6306475;22;20046;-72
2023/06/26 05:56:40;;;;;;;8.10;0.98;;;16.20;43.00;;;;;;6305922;22;20452;-67
2023/06/26 05:59:08;;;;;;;12.38;1.15;;;16.10;43.10;;;;;;6304042;22;20011;-67
2023/06/26 06:01:36;;;;;;;4.05;0.80;;;16.20;42.80;;;;;;6303527;22;20023;-72
2023/06/26 06:04:03;;;;;;;2.25;0.70;;;16.10;43.20;;;;;;6303519;22;20008;-70
2023/06/26 06:06:31;;;;;;;5.78;0.90;;;16.10;43.30;;;;;;6300952;22;20028;-71
2023/06/26 06:08:58;;;;;;;5.03;0.90;;;16.10;42.80;;;;;;6303735;22;19999;-71
2023/06/26 06:11:25;;;;;;;4.15;1.00;;;16.00;43.30;;;;;;6303957;22;20011;-67
2023/06/26 06:13:52;;;;;;;3.72;1.00;;;16.00;43.30;;;;;;6301257;22;20432;-74
2023/06/26 06:16:19;;;;;;;2.95;0.80;;;16.00;43.50;;;;;;6302932;22;20007;-76
2023/06/26 06:18:47;;;;;;;5.80;0.95;;;16.00;43.30;;;;;;6275921;22;20007;-78
2023/06/26 06:21:14;;;;;;;2.78;0.80;;;15.90;43.30;;;;;;6302774;22;19999;-74
2023/06/26 06:23:41;;;;;;;4.63;1.10;;;15.90;43.40;;;;;;6275437;22;20007;-74
2023/06/26 06:26:09;;;;;;;10.15;0.88;;;15.90;43.70;;;;;;6275134;22;20061;-77
2023/06/26 06:28:36;;;;;;;4.05;0.70;;;16.00;42.50;;;;;;6276708;22;20007;-73
2023/06/26 06:31:03;;;;;;;5.70;0.98;;;16.00;42.50;;;;;;6303402;22;19999;-73
2023/06/26 06:33:30;;;;;;;10.00;1.33;;;16.00;42.20;;;;;;6274391;22;20018;-76
2023/06/26 06:35:58;;;;;;;2.85;0.93;;;16.00;42.10;;;;;;6302929;22;20282;-76
2023/06/26 06:38:25;;;;;;;5.20;1.15;;;15.90;42.10;;;;;;6302770;22;20023;-77
2023/06/26 06:40:52;;;;;;;3.42;1.15;;;15.90;43.40;;;;;;6275844;22;20064;-73
2023/06/26 06:43:19;;;;;;;2.22;0.85;;;15.80;42.80;;;;;;6275915;22;20018;-72
2023/06/26 06:45:47;;;;;;;1.48;0.80;;;15.80;42.80;;;;;;6275633;22;20031;-73
2023/06/26 06:48:14;;;;;;;2.30;0.90;;;15.80;42.50;;;;;;6275797;22;20414;-72
2023/06/26 06:50:41;;;;;;;3.88;0.85;;;15.70;42.80;;;;;;6276379;22;20007;-70
2023/06/26 06:53:09;;;;;;;1.35;0.70;;;15.70;43.10;;;;;;6303279;22;20010;-71
2023/06/26 08:47:29;;;;;;;2.25;1.02;;;15.00;45.30;;;;;;6296635;22;20018;-79
2023/06/26 08:50:04;;;;;;;6.13;1.10;;;14.90;45.60;;;;;;6250001;22;20007;-69
2023/06/26 08:52:37;;;;;;;1.90;1.00;;;15.00;45.50;;;;;;6273797;22;20030;-74
2023/06/26 08:55:10;;;;;;;2.45;0.70;;;14.90;45.40;;;;;;6274331;22;20082;-74
2023/06/26 08:57:38;;;;;;;2.40;1.00;;;14.90;45.40;;;;;;6275981;22;20014;-72
2023/06/26 09:00:08;;;;;;;1.88;1.00;;;14.90;45.40;;;;;;6248800;22;20008;-72
2023/06/26 09:02:36;;;;;;;2.35;0.80;;;14.90;45.30;;;;;;6277023;22;20078;-73
2023/06/26 09:05:04;;;;;;;1.23;0.90;;;15.00;45.30;;;;;;6275596;22;20003;-73
2023/06/26 09:07:31;;;;;;;2.95;1.00;;;14.90;45.10;;;;;;6301427;22;20011;-70
2023/06/26 09:09:59;;;;;;;2.58;0.98;;;14.90;45.20;;;;;;6275971;22;20006;-71
2023/06/26 09:12:28;;;;;;;1.58;0.90;;;14.90;45.30;;;;;;6249304;22;20500;-71
2023/06/26 09:14:56;;;;;;;2.58;1.10;;;14.90;45.60;;;;;;6248911;22;20381;-72
2023/06/26 09:17:30;;;;;;;3.38;1.08;;;14.90;45.30;;;;;;6249060;22;20441;-76
2023/06/26 09:19:57;;;;;;;2.70;1.00;;;14.90;45.40;;;;;;6275307;22;20018;-73
2023/06/26 09:22:25;;;;;;;6.20;0.95;;;14.90;45.30;;;;;;6274386;22;20010;-73
2023/06/26 09:24:52;;;;;;;3.05;1.10;;;14.90;45.40;;;;;;6250594;22;20010;-72
2023/06/26 09:27:19;;;;;;;2.28;1.00;;;14.90;45.50;;;;;;6223006;22;20426;-71
2023/06/26 09:29:47;;;;;;;3.15;1.00;;;14.80;45.60;;;;;;6303301;22;20101;-72
2023/06/26 09:32:14;;;;;;;1.70;1.00;;;14.80;45.50;;;;;;6275380;22;20003;-72
2023/06/26 09:34:46;;;;;;;4.00;0.90;;;14.80;45.50;;;;;;6291015;22;20014;-70
2023/06/26 09:37:14;;;;;;;4.82;1.38;;;14.80;45.40;;;;;;6303160;22;20082;-72
2023/06/26 09:39:41;;;;;;;2.45;0.85;;;14.80;45.50;;;;;;6273121;22;20027;-72
2023/06/26 09:42:09;;;;;;;2.78;1.10;;;14.80;45.70;;;;;;6303033;22;20000;-71
2023/06/26 09:44:37;;;;;;;3.25;1.00;;;14.80;45.80;;;;;;6303026;22;21305;-70
2023/06/26 10:40:11;;;;;;;3.15;1.15;;;14.60;49.20;;;;;;6295527;22;20034;-74
2023/06/26 10:42:39;;;;;;;4.00;1.08;;;14.50;49.50;;;;;;6273259;22;20026;-73
2023/06/26 10:45:17;;;;;;;2.92;1.17;;;14.60;49.40;;;;;;6274695;22;20019;-72
2023/06/26 10:47:47;;;;;;;2.67;0.95;;;14.50;49.60;;;;;;6274092;22;19999;-73
2023/06/26 10:50:19;;;;;;;5.13;1.30;;;14.50;49.90;;;;;;6274069;22;20084;-73
2023/06/26 10:52:46;;;;;;;3.65;1.20;;;14.50;50.00;;;;;;6275382;22;20010;-70
2023/06/26 10:55:15;;;;;;;2.80;1.10;;;14.50;49.90;;;;;;6275339;22;20003;-71
2023/06/26 10:57:46;;;;;;;4.65;1.25;;;14.50;50.00;;;;;;6301313;22;20007;-70
2023/06/26 11:00:15;;;;;;;1.80;1.10;;;14.40;50.10;;;;;;6275185;22;20090;-71
2023/06/26 11:02:52;;;;;;;1.85;1.10;;;14.40;50.10;;;;;;6303277;22;20018;-72
2023/06/26 11:05:29;;;;;;;3.88;1.25;;;14.40;50.30;;;;;;6275661;22;20014;-72
2023/06/26 11:08:11;;;;;;;1.58;0.93;;;14.40;50.40;;;;;;6249381;22;19999;-71
2023/06/26 11:11:04;;;;;;;4.43;1.20;;;14.40;50.50;;;;;;6274172;22;20668;-72
2023/06/26 11:13:32;;;;;;;5.32;1.65;;;14.40;50.60;;;;;;6296282;22;20015;-72
2023/06/26 11:15:59;;;;;;;2.30;1.25;;;14.30;50.80;;;;;;6249453;22;20434;-71
2023/06/26 11:18:26;;;;;;;4.43;1.50;;;14.30;51.00;;;;;;6302082;22;20391;-72
2023/06/26 11:20:54;;;;;;;2.42;1.20;;;14.30;51.20;;;;;;6274525;22;20018;-71
2023/06/26 11:23:25;;;;;;;4.30;1.45;;;14.30;51.30;;;;;;6302113;22;20003;-71
2023/06/26 11:25:52;;;;;;;2.72;1.20;;;14.30;51.40;;;;;;6275457;22;20056;-71
2023/06/26 11:28:22;;;;;;;3.00;1.25;;;14.30;51.60;;;;;;6275366;22;20037;-71
2023/06/26 11:30:49;;;;;;;5.47;1.20;;;14.30;51.70;;;;;;6302953;22;20011;-72
2023/06/26 11:33:17;;;;;;;2.42;1.20;;;14.20;51.80;;;;;;6301957;22;20461;-71
2023/06/26 11:35:44;;;;;;;3.25;1.40;;;14.30;51.90;;;;;;6275004;22;20003;-72
2023/06/26 11:38:11;;;;;;;2.70;1.15;;;14.20;52.00;;;;;;6302102;22;20014;-76
2023/06/26 11:40:38;;;;;;;3.45;1.20;;;14.20;52.00;;;;;;6301861;22;20065;-73
2023/06/26 11:43:06;;;;;;;3.42;1.27;;;14.20;52.30;;;;;;6301115;22;20418;-74
2023/06/26 11:45:33;;;;;;;5.80;1.58;;;14.20;52.80;;;;;;6248381;22;20424;-79
2023/06/26 11:48:01;;;;;;;1.75;1.10;;;14.10;53.50;;;;;;6275065;22;20031;-73
2023/06/26 11:50:28;;;;;;;3.83;1.52;;;14.00;53.80;;;;;;6274823;22;20025;-73
2023/06/26 11:53:01;;;;;;;5.40;1.70;;;14.00;54.00;;;;;;6275421;22;20014;-73
2023/06/26 11:55:35;;;;;;;6.68;1.80;;;13.90;54.10;;;;;;6301444;22;20010;-73
2023/06/26 11:58:02;;;;;;;7.35;2.22;;;13.90;54.00;;;;;;6272852;22;20011;-77
2023/06/26 12:00:29;;;;;;;5.70;1.52;;;13.90;54.00;;;;;;6302286;22;20006;-77
2023/06/26 12:02:57;;;;;;;6.20;1.40;;;13.90;54.30;;;;;;6303311;22;20078;-78
2023/06/26 12:05:24;;;;;;;1.77;1.25;;;13.80;54.50;;;;;;6250219;22;20014;-77
2023/06/26 12:07:51;;;;;;;3.60;1.27;;;13.80;54.30;;;;;;6272260;22;20030;-77
2023/06/26 12:10:18;;;;;;;5.00;1.52;;;13.80;54.20;;;;;;6223209;22;20057;-78
2023/06/26 12:12:46;;;;;;;6.90;1.30;;;13.70;54.40;;;;;;6249470;22;20426;-76
2023/06/26 12:15:15;;;;;;;4.60;1.20;;;13.70;54.60;;;;;;6275356;22;20003;-75
2023/06/26 12:17:45;;;;;;;4.07;1.48;;;13.70;54.80;;;;;;6275168;22;20639;-76
2023/06/26 12:20:22;;;;;;;4.90;1.40;;;13.70;55.30;;;;;;6275061;22;20098;-77
2023/06/26 12:22:50;;;;;;;6.93;1.52;;;13.70;55.30;;;;;;6249337;22;20425;-75
2023/06/26 12:25:24;;;;;;;11.02;2.00;;;13.70;55.20;;;;;;6249428;22;20023;-75
2023/06/26 12:27:51;;;;;;;3.65;1.50;;;13.60;55.40;;;;;;6274958;22;20003;-81
2023/06/26 12:30:18;;;;;;;3.33;1.70;;;13.60;55.80;;;;;;6275221;22;20078;-79
2023/06/26 12:32:49;;;;;;;4.75;1.55;;;13.60;56.00;;;;;;6300807;22;20012;-80
2023/06/26 12:35:16;;;;;;;4.55;1.80;;;13.60;55.90;;;;;;6274838;22;20056;-72
2023/06/26 12:37:45;;;;;;;7.00;1.92;;;13.50;56.20;;;;;;6303022;22;20061;-70
2023/06/26 12:40:22;;;;;;;5.50;1.95;;;13.50;56.30;;;;;;6277577;22;20054;-70
2023/06/26 12:42:49;;;;;;;2.80;1.50;;;13.50;56.50;;;;;;6303053;22;20453;-73
2023/06/26 12:45:17;;;;;;;4.28;1.52;;;13.50;56.30;;;;;;6277093;22;20070;-74
2023/06/26 12:47:44;;;;;;;6.57;1.73;;;13.50;56.30;;;;;;6306723;22;20049;-74
2023/06/26 12:50:13;;;;;;;4.10;1.42;;;13.50;56.30;;;;;;6307274;22;20003;-75
2023/06/26 12:52:40;;;;;;;3.83;1.50;;;13.50;56.80;;;;;;6280395;22;20091;-74
2023/06/26 12:55:08;;;;;;;6.40;1.60;;;13.50;56.90;;;;;;6307256;22;20010;-74
2023/06/26 12:57:36;;;;;;;3.20;1.30;;;13.50;57.00;;;;;;6279139;22;20059;-75
2023/06/26 13:00:03;;;;;;;3.13;1.40;;;13.40;57.00;;;;;;6307570;22;20038;-74
2023/06/26 13:02:30;;;;;;;4.28;1.45;;;13.50;57.30;;;;;;6306464;22;19999;-75
2023/06/26 13:04:58;;;;;;;4.63;1.40;;;13.40;57.50;;;;;;6306623;22;20426;-75
2023/06/26 13:07:28;;;;;;;2.95;1.35;;;13.40;57.20;;;;;;6305597;22;20022;-74
2023/06/26 13:09:56;;;;;;;3.33;1.40;;;13.40;57.40;;;;;;6306254;22;20023;-75
2023/06/26 13:12:23;;;;;;;3.78;1.50;;;13.30;57.40;;;;;;6280325;22;20003;-74
2023/06/26 13:14:50;;;;;;;2.00;1.40;;;13.30;57.70;;;;;;6306749;22;20003;-74
2023/06/26 13:17:18;;;;;;;7.28;1.38;;;13.30;57.60;;;;;;6306570;22;19999;-75
2023/06/26 13:19:45;;;;;;;4.40;1.50;;;13.30;57.20;;;;;;6280351;22;20493;-74
2023/06/26 13:22:12;;;;;;;6.28;1.10;;;13.30;57.00;;;;;;6280428;22;20029;-74
2023/06/26 13:24:41;;;;;;;3.63;1.42;;;13.40;56.70;;;;;;6278897;22;20079;-74
2023/06/26 13:27:08;;;;;;;3.42;1.17;;;13.40;55.90;;;;;;6306093;22;20003;-73
2023/06/26 13:29:35;;;;;;;2.90;1.00;;;13.50;55.40;;;;;;6307009;22;19999;-73
2023/06/26 13:32:03;;;;;;;4.53;1.00;;;13.60;55.10;;;;;;6307780;22;20010;-73
2023/06/26 13:34:30;;;;;;;4.65;1.17;;;13.60;54.80;;;;;;6306547;22;19999;-73
2023/06/26 13:36:59;;;;;;;2.28;0.93;;;13.70;54.80;;;;;;6279573;22;20007;-73
2023/06/26 13:39:27;;;;;;;3.72;1.00;;;13.70;54.60;;;;;;6306375;22;20078;-74
2023/06/26 13:41:54;;;;;;;1.95;1.00;;;13.70;54.40;;;;;;6254984;22;20023;-73
2023/06/26 13:44:22;;;;;;;4.45;1.10;;;13.80;54.30;;;;;;6306430;22;20445;-73
2023/06/26 13:46:49;;;;;;;3.08;1.15;;;13.80;54.40;;;;;;6279699;22;20018;-73
2023/06/26 13:49:16;;;;;;;4.38;1.00;;;13.80;54.20;;;;;;6307719;22;20307;-73
2023/06/26 13:51:46;;;;;;;4.80;1.30;;;13.80;54.10;;;;;;6280717;22;20025;-74
2023/06/26 13:54:14;;;;;;;3.45;1.00;;;13.80;54.40;;;;;;6280340;22;20004;-74
2023/06/26 13:56:41;;;;;;;4.50;1.30;;;13.80;54.20;;;;;;6280279;22;20002;-74
2023/06/26 13:59:08;;;;;;;3.08;1.52;;;13.80;54.30;;;;;;6279854;22;20015;-73
2023/06/26 14:01:36;;;;;;;3.95;1.40;;;13.80;54.10;;;;;;6307462;22;20003;-73
2023/06/26 14:04:03;;;;;;;3.67;1.10;;;13.80;54.30;;;;;;6307344;22;19999;-73
2023/06/26 14:06:32;;;;;;;4.70;1.15;;;13.80;54.30;;;;;;6306472;22;20018;-73
2023/06/26 14:08:59;;;;;;;4.32;1.10;;;13.80;54.50;;;;;;6280172;22;20049;-73
2023/06/26 14:11:27;;;;;;;3.20;1.20;;;13.70;54.70;;;;;;6280905;22;19999;-73
2023/06/26 14:13:54;;;;;;;4.28;1.23;;;13.70;54.90;;;;;;6307381;22;20003;-73
2023/06/26 14:16:21;;;;;;;4.55;1.05;;;13.70;55.00;;;;;;6307384;22;20430;-73
2023/06/26 14:18:49;;;;;;;3.92;1.15;;;13.70;54.80;;;;;;6306469;22;20007;-73
2023/06/26 16:02:34;;;;;;;3.08;1.08;;;13.10;57.70;;;;;;6305077;22;20022;-73
2023/06/26 16:05:01;;;;;;;2.90;1.20;;;13.10;57.90;;;;;;6253729;22;20011;-73
2023/06/26 16:07:31;;;;;;;6.22;1.17;;;13.10;58.10;;;;;;6306502;22;19999;-73
2023/06/26 16:09:59;;;;;;;5.53;1.40;;;13.10;58.60;;;;;;6305402;22;20449;-73
2023/06/26 16:12:26;;;;;;;3.75;1.30;;;13.00;59.10;;;;;;6306264;22;20242;-73
2023/06/26 16:14:54;;;;;;;3.33;1.00;;;12.80;60.10;;;;;;6306297;22;20473;-73
2023/06/26 16:17:21;;;;;;;3.40;1.23;;;12.70;60.20;;;;;;6305955;22;20275;-73
2023/06/26 16:19:48;;;;;;;3.22;1.10;;;12.70;60.40;;;;;;6278085;22;20011;-73
2023/06/26 16:22:15;;;;;;;2.00;1.00;;;12.60;61.20;;;;;;6278231;22;20005;-72
2023/06/26 16:24:43;;;;;;;3.67;1.40;;;12.50;60.90;;;;;;6306054;22;20008;-72
2023/06/26 16:27:10;;;;;;;3.30;1.10;;;12.50;61.30;;;;;;6305597;22;20136;-72
2023/06/26 16:29:38;;;;;;;4.25;1.17;;;12.40;61.70;;;;;;6305383;22;20345;-72
2023/06/26 16:32:07;;;;;;;4.18;1.23;;;12.30;62.40;;;;;;6305922;22;20410;-73
2023/06/26 16:34:34;;;;;;;4.38;1.30;;;12.30;61.80;;;;;;6279705;22;20020;-72
2023/06/26 16:37:06;;;;;;;4.35;0.90;;;12.40;61.10;;;;;;6306373;22;20330;-72
2023/06/26 16:39:35;;;;;;;3.97;1.10;;;12.50;60.60;;;;;;6305254;22;20587;-72
2023/06/26 16:42:02;;;;;;;3.67;1.13;;;12.60;60.00;;;;;;6278100;22;20002;-72
2023/06/26 16:44:29;;;;;;;3.10;1.08;;;12.70;59.60;;;;;;6305181;22;19999;-72
2023/06/26 16:46:58;;;;;;;6.45;1.42;;;12.70;59.30;;;;;;6306006;22;19999;-72
2023/06/26 16:49:26;;;;;;;3.25;1.15;;;12.70;59.00;;;;;;6278630;22;20031;-73
2023/06/26 16:51:56;;;;;;;6.55;1.38;;;12.80;58.90;;;;;;6305306;22;20334;-73
2023/06/26 16:54:24;;;;;;;3.25;1.10;;;12.80;58.80;;;;;;6305788;22;19996;-72
2023/06/26 16:56:53;;;;;;;5.68;1.08;;;12.80;58.70;;;;;;6305919;22;20003;-72
2023/06/26 16:59:20;;;;;;;2.63;1.10;;;12.90;58.70;;;;;;6305200;22;20007;-72
2023/06/26 17:01:48;;;;;;;4.95;1.30;;;12.80;58.90;;;;;;6305172;22;20315;-72
2023/06/26 17:04:15;;;;;;;4.75;1.08;;;12.80;58.90;;;;;;6306205;22;20460;-73
2023/06/26 17:06:43;;;;;;;2.45;0.80;;;12.90;58.90;;;;;;6305751;22;19999;-72
2023/06/26 17:09:11;;;;;;;4.68;0.93;;;12.90;58.80;;;;;;6253029;22;19999;-73
2023/06/26 17:11:41;;;;;;;2.53;1.00;;;12.80;59.00;;;;;;6278983;22;20010;-72
2023/06/26 17:14:08;;;;;;;5.20;1.27;;;12.80;59.10;;;;;;6305746;22;20026;-73
2023/06/26 17:16:36;;;;;;;4.57;1.20;;;12.80;59.40;;;;;;6278225;22;20283;-72
2023/06/26 17:19:03;;;;;;;3.72;0.90;;;12.80;59.30;;;;;;6304951;22;20011;-72